Albert, KS

1:03 AM CDT on September 02, 2014 (GMT -0500)
Great Bend Municipal | Change Station
CLOSE
Current Station
Airport
Location: Great Bend,
Elevation: 1886 ft
Nearby Weather Stations

Elev 1886 ft 38.34 °N, 98.86 °W | Updated 8 minutes ago

Clear
Clear
66 °F
Feels Like 66 °F
N
0
Wind Variable Wind from North

Today
High -- | Low -- °F
--% Chance of Precip.
Yesterday
High -- | Low -- °F
Precip. -- in
7:06 AM 8:04 PM
Waxing Crescent, 48% visible
Pressure 29.94 in
Visibility 9.0 miles
Clouds Clear
Dew Point 63 °F
Humidity 88%
Rainfall 0.00 in
Snow Depth Not available.
UV 0 out of 12
Pollen 10.80 out of 12
Air Quality Not available.
Flu Activity Not available.
METAR KGBD 020555Z AUTO 00000KT 9SM CLR 19/17 A2994 RMK AO1 10240 20190 52017

More Conditions Fewer Conditions

Pressure 29.94 in
Visibility 9.0 miles
Clouds Clear
Dew Point 63 °F
Humidity 88%
Rainfall 0.00 in
Snow Depth Not available.
UV 0 out of 12
Pollen 10.80 out of 12
Air Quality Not available.
Flu Activity Not available.
METAR KGBD 020555Z AUTO 00000KT 9SM CLR 19/17 A2994 RMK AO1 10240 20190 52017

More Conditions Fewer Conditions

10-Day Weather Forecast

Almanac

Astronomy

Sep. 02, 2014 Rise Set
Actual Time 7:06 AM CDT 8:04 PM CDT
Civil Twilight 6:39 AM CDT 8:31 PM CDT
Nautical Twilight 6:07 AM CDT 9:03 PM CDT
Astronomical Twilight 5:33 AM CDT 9:36 PM CDT
Moon 2:46 PM CDT 12:13 AM CDT
Length of Visible Light 13h 52m
Length of Day
12h 58m
Tomorrow will be 2m 23s shorter.
Waxing Crescent, 48% of the Moon is Illuminated
Today
Waxing Crescent
Sep 2
First Quarter
Sep 8
Full
Sep 15
Last Quarter
Sep 24
New

Today's Extremes

State Highs State Lows

Community

WunderPhotos

Upload Photos

1,749,581 photos uploaded!

WunderBlogs® & News

Nearby

Snow Depth

Station Depth Elevation
No new snow has been reported.

Earthquake Activity

City Distance Mag. Time & Date
Medford, Oklahoma 134 miles 3.3 11:58 PM CDT
2014-09-01
Enid, Oklahoma 140 miles 3.4 11:57 AM CDT
2014-08-31
Enid, Oklahoma 140 miles 3.7 2:20 AM CDT
2014-08-31
Minimum magnitude displayed is 2.5.

Coastal Water Temperatures

Place Temperature
No Stations Reporting

Nearby Weather Stations